Time;durP1;ratioP1;P1;durP2;ratioP2;P2;SDS_P1;SDS_P2;PMS_P1;PMS_P2;Temp;Humidity;BMP_temperature;BMP_pressure;BME280_temperature;BME280_humidity;BME280_pressure;Samples;Min_cycle;Max_cycle;Signal;HPM_P1;HPM_P2
2023/08/16 00:00:32;;;;;;;9.38;3.80;;;;;;;19.77;100.00;101880.44;5285925;28;20189;-70
2023/08/16 00:03:04;;;;;;;7.70;3.53;;;;;;;19.79;100.00;101887.38;5285930;28;20020;-70
2023/08/16 00:05:34;;;;;;;7.88;3.75;;;;;;;19.79;100.00;101879.19;5275089;28;20020;-70
2023/08/16 00:08:05;;;;;;;5.10;2.85;;;;;;;19.82;100.00;101889.66;5272520;28;20067;-70
2023/08/16 00:10:36;;;;;;;12.27;3.22;;;;;;;19.79;100.00;101886.53;5285431;28;20488;-70
2023/08/16 00:13:06;;;;;;;7.97;3.28;;;;;;;19.78;100.00;101891.13;5272361;28;20024;-70
2023/08/16 00:15:37;;;;;;;9.02;3.40;;;;;;;19.77;100.00;101884.00;5293476;28;20535;-70
2023/08/16 00:18:07;;;;;;;9.32;3.40;;;;;;;19.76;100.00;101887.75;5287471;28;20036;-71
2023/08/16 00:20:38;;;;;;;7.68;2.85;;;;;;;19.79;100.00;101895.53;5289313;28;20169;-72
2023/08/16 00:23:08;;;;;;;7.78;3.80;;;;;;;19.82;100.00;101894.28;5289988;28;20023;-71
2023/08/16 00:25:39;;;;;;;7.25;3.45;;;;;;;19.80;100.00;101890.94;5288139;28;20035;-72
2023/08/16 00:28:09;;;;;;;9.88;3.03;;;;;;;19.80;100.00;101893.66;5268475;28;20016;-71
2023/08/16 00:30:40;;;;;;;7.38;2.92;;;;;;;19.82;100.00;101892.38;5284790;28;20030;-72
2023/08/16 00:33:11;;;;;;;6.45;3.58;;;;;;;19.88;100.00;101888.00;5289408;28;20023;-71
2023/08/16 00:35:41;;;;;;;7.20;3.10;;;;;;;19.89;100.00;101887.84;5285282;28;20047;-72
2023/08/16 00:38:12;;;;;;;8.77;3.05;;;;;;;19.91;100.00;101896.63;5280236;28;20342;-71
2023/08/16 00:40:47;;;;;;;6.57;2.70;;;;;;;19.92;100.00;101889.28;5289363;28;20188;-71
2023/08/16 00:43:18;;;;;;;7.28;3.50;;;;;;;19.95;100.00;101891.63;5275420;28;20060;-70
2023/08/16 00:45:49;;;;;;;8.80;3.60;;;;;;;19.96;100.00;101895.19;5268740;28;20445;-70
2023/08/16 00:48:20;;;;;;;9.00;3.58;;;;;;;19.97;100.00;101899.59;5268515;28;20077;-70
2023/08/16 00:50:50;;;;;;;8.05;3.30;;;;;;;19.96;100.00;101890.56;5268582;28;20024;-70
2023/08/16 00:53:22;;;;;;;10.23;3.28;;;;;;;19.98;100.00;101902.13;5281816;28;20474;-70
2023/08/16 00:55:52;;;;;;;7.18;3.38;;;;;;;19.98;100.00;101901.25;5268660;28;20028;-70
2023/08/16 00:58:24;;;;;;;6.15;3.22;;;;;;;20.01;100.00;101898.13;5268392;28;20111;-70
2023/08/16 01:00:55;;;;;;;10.60;4.97;;;;;;;20.00;100.00;101901.91;5268647;28;20034;-70
2023/08/16 01:03:25;;;;;;;8.52;4.25;;;;;;;19.97;100.00;101885.97;5274797;28;20536;-70
2023/08/16 01:05:56;;;;;;;9.25;3.33;;;;;;;19.95;100.00;101891.63;5290072;28;20111;-70
2023/08/16 01:08:26;;;;;;;6.72;4.13;;;;;;;19.92;100.00;101892.84;5288954;28;20380;-70
2023/08/16 01:11:18;;;;;;;10.55;4.60;;;;;;;19.92;100.00;101889.28;5289246;28;20491;-70
2023/08/16 01:14:09;;;;;;;9.43;4.07;;;;;;;19.89;100.00;101897.88;5289223;28;20160;-70
2023/08/16 01:16:43;;;;;;;8.90;4.90;;;;;;;19.87;100.00;101908.13;5285019;27;20382;-70
2023/08/16 01:19:25;;;;;;;7.97;4.15;;;;;;;19.83;100.00;101904.13;5268445;28;20039;-70
2023/08/16 01:22:19;;;;;;;11.68;5.32;;;;;;;19.79;100.00;101905.59;5267957;28;20050;-70
2023/08/16 01:25:11;;;;;;;14.15;4.30;;;;;;;19.79;100.00;101917.31;5268076;28;20066;-71
2023/08/16 01:27:43;;;;;;;8.95;4.88;;;;;;;19.78;100.00;101912.06;5272448;28;20031;-70
2023/08/16 01:30:15;;;;;;;10.93;4.43;;;;;;;19.76;100.00;101908.69;5287941;28;20075;-70
2023/08/16 01:32:47;;;;;;;9.63;4.93;;;;;;;19.78;100.00;101912.06;5288858;28;20023;-70
2023/08/16 01:35:17;;;;;;;11.63;5.18;;;;;;;19.77;100.00;101905.78;5288464;28;20134;-70
2023/08/16 01:37:48;;;;;;;12.02;5.30;;;;;;;19.78;100.00;101912.06;5275096;28;20172;-70
2023/08/16 01:40:18;;;;;;;12.38;5.68;;;;;;;19.77;100.00;101908.50;5288612;28;20224;-70
2023/08/16 01:42:50;;;;;;;13.13;5.90;;;;;;;19.75;100.00;101915.19;5261535;28;20035;-70
2023/08/16 01:45:21;;;;;;;11.15;6.57;;;;;;;19.70;100.00;101910.34;5281653;28;20067;-71
2023/08/16 01:47:52;;;;;;;10.68;6.28;;;;;;;19.74;100.00;101910.81;5267200;28;20493;-70
2023/08/16 01:50:25;;;;;;;14.30;6.30;;;;;;;19.70;100.00;101904.91;5267346;28;20031;-70
2023/08/16 01:52:56;;;;;;;10.13;6.32;;;;;;;19.65;100.00;101904.66;5267359;28;20500;-71
2023/08/16 01:55:26;;;;;;;13.30;6.43;;;;;;;19.63;100.00;101915.75;5286404;28;20110;-70
2023/08/16 01:57:57;;;;;;;12.90;6.38;;;;;;;19.63;100.00;101909.47;5288071;28;20546;-71
2023/08/16 02:00:28;;;;;;;14.80;6.25;;;;;;;19.63;100.00;101909.47;5281636;28;20028;-70
2023/08/16 02:02:59;;;;;;;12.95;5.90;;;;;;;19.62;100.00;101916.78;5267140;28;20032;-71
2023/08/16 02:05:29;;;;;;;12.82;5.20;;;;;;;19.64;100.00;101922.88;5275339;28;20023;-70
2023/08/16 02:08:00;;;;;;;8.20;5.78;;;;;;;19.65;100.00;101915.56;5279402;28;20016;-70
2023/08/16 02:10:31;;;;;;;11.30;5.93;;;;;;;19.61;100.00;101922.44;5277218;28;20051;-70
2023/08/16 02:13:02;;;;;;;17.63;6.18;;;;;;;19.59;100.00;101919.91;5267237;28;20507;-70
2023/08/16 02:15:33;;;;;;;10.18;5.35;;;;;;;19.55;100.00;101910.44;5266780;28;20053;-70
2023/08/16 02:18:10;;;;;;;13.95;5.55;;;;;;;19.54;100.00;101913.38;5266542;28;20035;-70
2023/08/16 02:20:41;;;;;;;9.90;4.93;;;;;;;19.53;100.00;101903.50;5280106;28;20024;-70
2023/08/16 02:23:12;;;;;;;12.68;5.53;;;;;;;19.52;100.00;101912.72;5275511;28;20614;-70
2023/08/16 02:25:43;;;;;;;9.02;5.55;;;;;;;19.52;100.00;101912.72;5287202;28;20031;-70
2023/08/16 02:28:14;;;;;;;12.40;5.40;;;;;;;19.54;100.00;101910.66;5287782;28;20011;-70
2023/08/16 02:30:45;;;;;;;9.38;6.07;;;;;;;19.51;100.00;101914.59;5288027;28;20465;-70
2023/08/16 02:33:15;;;;;;;14.20;6.18;;;;;;;19.51;100.00;101913.75;5275971;28;20032;-70
2023/08/16 02:35:46;;;;;;;13.52;5.47;;;;;;;19.50;100.00;101912.91;5267997;28;20401;-70
2023/08/16 02:38:18;;;;;;;17.58;6.05;;;;;;;19.48;100.00;101909.56;5287449;28;20081;-70
2023/08/16 02:40:48;;;;;;;11.98;5.78;;;;;;;19.47;100.00;101904.31;5279484;28;20054;-70
2023/08/16 02:43:19;;;;;;;9.48;5.10;;;;;;;19.49;100.00;101911.25;5267563;28;20024;-70
2023/08/16 02:45:50;;;;;;;13.27;5.88;;;;;;;19.45;100.00;101900.94;5287218;28;20041;-70
2023/08/16 02:48:20;;;;;;;8.52;5.20;;;;;;;19.40;100.00;101899.66;5284388;28;20030;-71
2023/08/16 02:50:51;;;;;;;11.77;5.90;;;;;;;19.34;100.00;101896.91;5276063;28;20051;-70
2023/08/16 02:53:21;;;;;;;14.02;6.18;;;;;;;19.23;100.00;101901.03;5282826;28;20020;-69
2023/08/16 02:55:52;;;;;;;13.50;5.85;;;;;;;19.14;100.00;101896.75;5265941;28;20035;-69
2023/08/16 02:58:22;;;;;;;14.05;7.00;;;;;;;19.06;100.00;101903.16;5270803;28;20035;-70
2023/08/16 03:00:53;;;;;;;14.80;6.75;;;;;;;19.01;100.00;101904.81;5286490;28;20034;-70
2023/08/16 03:03:23;;;;;;;14.20;6.82;;;;;;;18.92;100.00;101893.22;5280555;28;21217;-69
2023/08/16 03:05:54;;;;;;;14.65;6.90;;;;;;;18.96;100.00;101905.38;5265956;28;20105;-69
2023/08/16 03:08:24;;;;;;;14.32;6.72;;;;;;;18.98;100.00;101907.94;5273313;28;20019;-69
2023/08/16 03:10:55;;;;;;;18.00;6.88;;;;;;;18.98;100.00;101913.38;5282141;28;20031;-69
2023/08/16 03:13:25;;;;;;;14.93;6.28;;;;;;;18.92;100.00;101912.25;5287257;28;20031;-68
2023/08/16 03:15:56;;;;;;;14.13;6.75;;;;;;;18.91;100.00;101910.56;5284394;28;20574;-69
2023/08/16 03:18:26;;;;;;;11.48;6.43;;;;;;;18.93;100.00;101911.22;5265600;28;20027;-69
2023/08/16 03:20:57;;;;;;;13.65;6.65;;;;;;;18.95;100.00;101908.31;5268953;28;20500;-69
2023/08/16 03:23:28;;;;;;;16.83;7.00;;;;;;;18.94;100.00;101903.91;5275332;28;20111;-69
2023/08/16 03:25:58;;;;;;;11.43;6.65;;;;;;;18.93;100.00;101907.69;5279111;28;20036;-69
2023/08/16 03:28:29;;;;;;;14.85;6.90;;;;;;;18.90;100.00;101906.19;5277613;28;20452;-69
2023/08/16 03:31:00;;;;;;;15.85;7.35;;;;;;;18.89;100.00;101909.94;5266291;28;20108;-70
2023/08/16 03:33:30;;;;;;;12.48;7.20;;;;;;;18.90;100.00;101914.34;5279064;28;20156;-70
2023/08/16 03:36:01;;;;;;;15.15;7.13;;;;;;;18.90;100.00;101914.34;5260423;28;20020;-70
2023/08/16 03:38:31;;;;;;;12.35;6.57;;;;;;;18.89;100.00;101920.81;5279800;28;20027;-70
2023/08/16 03:41:02;;;;;;;13.35;6.55;;;;;;;18.91;100.00;101921.44;5277370;28;20023;-70
2023/08/16 03:43:33;;;;;;;14.63;7.22;;;;;;;18.93;100.00;101915.84;5281623;28;20024;-70
2023/08/16 03:46:03;;;;;;;11.93;6.18;;;;;;;18.92;100.00;101925.84;5286180;28;20452;-70
2023/08/16 03:48:34;;;;;;;11.88;7.38;;;;;;;18.93;100.00;101913.13;5286253;28;20508;-69
2023/08/16 03:51:05;;;;;;;15.07;8.20;;;;;;;18.92;100.00;101914.13;5286607;28;20069;-70
2023/08/16 03:53:35;;;;;;;12.48;7.40;;;;;;;18.89;100.00;101923.53;5266649;28;20478;-70
2023/08/16 03:56:06;;;;;;;16.90;8.43;;;;;;;18.91;100.00;101926.88;5277598;28;20023;-70
2023/08/16 03:58:36;;;;;;;15.40;7.78;;;;;;;18.88;100.00;101924.56;5266063;28;20035;-70
2023/08/16 04:01:07;;;;;;;17.98;7.90;;;;;;;18.87;100.00;101920.16;5264946;28;20075;-70
2023/08/16 04:03:37;;;;;;;14.30;7.85;;;;;;;18.86;100.00;101922.03;5230419;28;20534;-69
2023/08/16 04:06:11;;;;;;;14.85;7.65;;;;;;;18.87;100.00;101917.44;5265349;28;20032;-70
2023/08/16 04:08:42;;;;;;;18.00;8.30;;;;;;;18.87;100.00;101921.00;5277684;28;20481;-69
2023/08/16 04:11:12;;;;;;;19.77;8.90;;;;;;;18.86;100.00;101913.88;5282943;28;20020;-69
2023/08/16 04:13:43;;;;;;;18.13;9.00;;;;;;;18.87;100.00;101926.41;5264710;28;20068;-69
2023/08/16 04:16:13;;;;;;;17.50;8.07;;;;;;;18.83;100.00;101913.44;5268682;28;20032;-70
2023/08/16 04:18:44;;;;;;;15.25;8.35;;;;;;;18.83;100.00;101919.72;5274400;28;20024;-70
2023/08/16 04:21:14;;;;;;;17.02;8.70;;;;;;;18.84;100.00;101913.25;5269729;28;20027;-70
2023/08/16 04:23:45;;;;;;;18.30;9.27;;;;;;;18.85;100.00;101917.63;5273429;28;20128;-70
2023/08/16 04:26:15;;;;;;;18.70;10.10;;;;;;;18.84;100.00;101915.97;5284107;28;20019;-71
2023/08/16 04:28:46;;;;;;;16.23;9.73;;;;;;;18.86;100.00;101919.31;5276677;28;20035;-71
2023/08/16 04:31:16;;;;;;;15.38;8.65;;;;;;;18.86;100.00;101924.75;5282429;28;20190;-70
2023/08/16 04:33:47;;;;;;;19.05;9.88;;;;;;;18.86;100.00;101913.88;5284593;28;20480;-70
2023/08/16 04:36:17;;;;;;;20.85;9.80;;;;;;;18.85;100.00;101923.06;5264594;28;20547;-71
2023/08/16 04:38:48;;;;;;;20.83;11.30;;;;;;;18.85;100.00;101922.22;5279804;28;20077;-70
2023/08/16 04:41:18;;;;;;;20.60;10.63;;;;;;;18.84;100.00;101918.69;5275730;28;20035;-70
2023/08/16 04:43:49;;;;;;;17.90;9.90;;;;;;;18.84;100.00;101921.41;5277996;28;20024;-70
2023/08/16 04:46:19;;;;;;;20.75;10.32;;;;;;;18.86;100.00;101924.75;5264585;28;20435;-71
2023/08/16 04:48:50;;;;;;;16.33;9.38;;;;;;;18.85;100.00;101933.94;5278465;28;20027;-70
2023/08/16 04:51:21;;;;;;;17.77;9.18;;;;;;;18.87;100.00;101921.00;5264859;28;20032;-70
2023/08/16 04:53:51;;;;;;;18.73;9.88;;;;;;;18.88;100.00;101921.84;5271059;28;20077;-70
2023/08/16 04:56:22;;;;;;;23.77;10.63;;;;;;;18.85;100.00;101928.50;5271844;28;20103;-70
2023/08/16 04:58:52;;;;;;;19.83;10.18;;;;;;;18.85;100.00;101928.50;5277440;28;20024;-70
2023/08/16 05:01:23;;;;;;;17.08;9.18;;;;;;;18.83;100.00;101927.88;5279353;28;20019;-71
2023/08/16 05:03:53;;;;;;;19.88;9.20;;;;;;;18.82;100.00;101938.91;5284573;28;20024;-71
2023/08/16 05:06:24;;;;;;;21.48;10.57;;;;;;;18.80;100.00;101946.44;5271670;28;20048;-71
2023/08/16 05:08:54;;;;;;;20.17;10.60;;;;;;;18.79;100.00;101951.03;5268109;28;20073;-70
2023/08/16 05:11:25;;;;;;;19.38;11.50;;;;;;;18.80;100.00;101946.44;5268866;28;20452;-70
2023/08/16 05:13:55;;;;;;;21.50;12.02;;;;;;;18.80;100.00;101947.28;5267943;28;20034;-70
2023/08/16 05:16:26;;;;;;;20.60;11.23;;;;;;;18.83;100.00;101946.91;5281256;28;20040;-71
2023/08/16 05:18:57;;;;;;;22.33;11.27;;;;;;;18.87;100.00;101947.34;5281312;28;20028;-70
2023/08/16 05:21:27;;;;;;;21.20;11.90;;;;;;;18.89;100.00;101943.41;5288649;28;20225;-70
2023/08/16 05:23:59;;;;;;;20.45;11.05;;;;;;;18.89;100.00;101939.84;5288573;28;20042;-70
2023/08/16 05:26:31;;;;;;;18.83;11.13;;;;;;;18.88;100.00;101941.72;5288756;28;20514;-71
2023/08/16 05:29:02;;;;;;;24.23;12.07;;;;;;;18.89;100.00;101942.56;5287912;28;20015;-71
2023/08/16 05:31:32;;;;;;;21.42;12.63;;;;;;;18.92;100.00;101949.47;5288521;28;20491;-71
2023/08/16 05:34:03;;;;;;;19.63;11.40;;;;;;;18.95;100.00;101946.38;5288274;28;20469;-71
2023/08/16 05:36:59;;;;;;;23.58;12.48;;;;;;;18.97;100.00;101949.72;5276989;28;20461;-71
2023/08/16 05:39:31;;;;;;;26.25;11.38;;;;;;;19.00;100.00;101947.47;5274976;28;20066;-71
2023/08/16 05:42:02;;;;;;;18.98;11.43;;;;;;;19.03;100.00;101955.25;5273994;28;20024;-71
2023/08/16 05:44:32;;;;;;;18.02;9.88;;;;;;;19.06;100.00;101954.00;5287928;28;20031;-71
2023/08/16 05:47:03;;;;;;;17.35;10.38;;;;;;;19.08;100.00;101957.38;5274138;28;20024;-71
2023/08/16 05:49:33;;;;;;;23.52;12.13;;;;;;;19.07;100.00;101961.97;5276347;28;20024;-71
2023/08/16 05:52:04;;;;;;;19.35;10.88;;;;;;;19.09;100.00;101972.66;5267021;28;20492;-70
2023/08/16 05:54:34;;;;;;;23.83;11.98;;;;;;;19.12;100.00;101969.53;5279887;28;20027;-71
2023/08/16 05:57:05;;;;;;;24.27;12.55;;;;;;;19.14;100.00;101979.19;5274039;28;20030;-71
2023/08/16 05:59:35;;;;;;;22.98;11.75;;;;;;;19.20;100.00;101968.56;5287803;28;20020;-71
2023/08/16 06:02:07;;;;;;;24.02;11.45;;;;;;;19.28;100.00;101963.00;5266480;28;20388;-71
2023/08/16 06:04:38;;;;;;;20.80;11.40;;;;;;;19.35;100.00;101950.28;5266575;28;20047;-71
2023/08/16 06:07:09;;;;;;;23.08;10.30;;;;;;;19.45;100.00;101958.94;5275268;28;20032;-71
2023/08/16 06:09:39;;;;;;;23.77;10.55;;;;;;;19.53;100.00;101963.38;5269619;28;20603;-71
2023/08/16 06:12:11;;;;;;;19.83;11.27;;;;;;;19.57;100.00;101976.38;5277704;28;20024;-71
2023/08/16 06:14:42;;;;;;;22.92;12.10;;;;;;;19.66;100.00;101979.84;5287050;28;20153;-71
2023/08/16 06:17:12;;;;;;;24.05;11.70;;;;;;;19.71;100.00;101977.38;5286476;28;20028;-71
2023/08/16 06:19:43;;;;;;;21.55;11.90;;;;;;;19.78;100.00;101966.50;5285064;28;20045;-71
2023/08/16 06:22:13;;;;;;;27.10;12.25;;;;;;;19.84;100.00;101977.47;5274792;28;20181;-71
2023/08/16 06:24:44;;;;;;;19.92;11.05;;;;;;;19.91;100.00;101969.31;5280275;28;20504;-71
2023/08/16 06:27:14;;;;;;;17.73;9.40;;;;;;;19.92;100.00;101980.00;5279984;28;20489;-72
2023/08/16 06:29:45;;;;;;;20.50;10.48;;;;;;;19.91;100.00;101970.16;5266410;28;20251;-71
2023/08/16 06:32:16;;;;;;;23.10;11.05;;;;;;;19.86;100.00;101974.53;5267932;28;20390;-71
2023/08/16 06:34:47;;;;;;;26.92;10.95;;;;;;;19.85;100.00;101975.56;5266860;28;20393;-71
2023/08/16 06:37:17;;;;;;;19.42;9.80;;;;;;;19.79;100.00;101969.06;5265993;28;20028;-71
2023/08/16 06:39:48;;;;;;;20.75;11.07;;;;;;;19.79;100.00;101974.50;5276185;28;20080;-70
2023/08/16 06:42:19;;;;;;;19.35;10.10;;;;;;;19.84;100.00;101984.78;5268437;28;20072;-70
2023/08/16 06:44:49;;;;;;;18.80;10.35;;;;;;;19.82;100.00;101984.97;5278592;28;20082;-70
2023/08/16 06:47:20;;;;;;;24.33;10.82;;;;;;;19.86;100.00;101986.25;5267005;28;20023;-71
2023/08/16 06:49:50;;;;;;;21.52;10.48;;;;;;;19.94;100.00;101998.06;5246713;28;20057;-71
2023/08/16 06:52:21;;;;;;;20.75;11.40;;;;;;;19.96;100.00;101991.34;5277905;28;20027;-71
2023/08/16 06:54:51;;;;;;;19.13;11.50;;;;;;;20.00;100.00;102002.69;5278280;28;20034;-71
2023/08/16 06:57:22;;;;;;;22.23;12.18;;;;;;;20.00;100.00;102000.81;5271176;28;20077;-70
2023/08/16 06:59:53;;;;;;;25.25;12.07;;;;;;;19.97;100.00;101995.75;5273224;28;20030;-71
2023/08/16 07:02:23;;;;;;;23.13;11.35;;;;;;;19.96;100.00;101994.06;5261691;28;20103;-71
2023/08/16 07:04:54;;;;;;;20.35;11.15;;;;;;;19.94;100.00;101992.59;5265866;28;20030;-71
2023/08/16 07:07:24;;;;;;;25.65;13.13;;;;;;;19.94;100.00;101998.06;5265709;28;20047;-71
2023/08/16 07:09:55;;;;;;;20.95;12.55;;;;;;;19.92;100.00;102004.50;5285139;28;20051;-71
2023/08/16 07:12:25;;;;;;;24.25;13.85;;;;;;;19.92;100.00;101995.50;5273383;28;20110;-71
2023/08/16 07:14:56;;;;;;;25.83;14.23;;;;;;;19.96;100.00;102001.41;5266704;28;20470;-72
2023/08/16 07:17:26;;;;;;;22.92;11.82;;;;;;;20.01;100.00;101993.47;5271197;28;20474;-71
2023/08/16 07:19:57;;;;;;;25.23;12.88;;;;;;;20.13;100.00;101997.28;5273605;28;20073;-72
2023/08/16 07:22:27;;;;;;;22.45;11.85;;;;;;;20.24;100.00;101994.03;5286422;28;20022;-71
2023/08/16 07:24:58;;;;;;;23.15;11.88;;;;;;;20.39;100.00;101992.00;5276047;28;20040;-72
2023/08/16 07:27:29;;;;;;;20.48;12.57;;;;;;;20.64;100.00;101992.31;5267793;28;20441;-71
2023/08/16 07:29:59;;;;;;;21.58;12.68;;;;;;;21.11;100.00;101993.25;5286022;28;20042;-72
2023/08/16 07:32:30;;;;;;;24.55;12.32;;;;;;;21.70;100.00;101989.69;5267422;28;20362;-72
2023/08/16 07:35:01;;;;;;;25.48;11.60;;;;;;;22.30;100.00;101986.00;5264858;28;20035;-72
2023/08/16 07:37:32;;;;;;;19.67;10.77;;;;;;;22.89;100.00;101980.25;5284949;28;20473;-72
2023/08/16 07:40:04;;;;;;;18.15;10.57;;;;;;;23.23;100.00;101983.56;5285493;28;20023;-71
2023/08/16 07:42:35;;;;;;;21.35;10.38;;;;;;;23.49;100.00;101996.19;5264898;28;20363;-72
2023/08/16 07:45:06;;;;;;;17.23;11.15;;;;;;;23.65;100.00;102003.03;5267491;28;20031;-72
2023/08/16 07:47:37;;;;;;;20.00;10.43;;;;;;;23.67;100.00;102006.38;5277819;28;20028;-72
2023/08/16 07:50:08;;;;;;;21.23;10.23;;;;;;;23.64;100.00;102017.78;5265915;28;20038;-72
2023/08/16 07:52:38;;;;;;;22.02;10.88;;;;;;;23.50;100.00;102017.06;5265905;28;20029;-72
2023/08/16 07:55:09;;;;;;;17.40;9.13;;;;;;;23.26;100.00;102011.34;5265823;28;20031;-72
2023/08/16 07:57:39;;;;;;;17.15;10.43;;;;;;;23.14;100.00;102028.69;5275988;28;20027;-72
2023/08/16 08:00:12;;;;;;;28.75;9.50;;;;;;;22.93;100.00;102035.34;5280228;28;20390;-72
2023/08/16 08:02:43;;;;;;;22.30;10.85;;;;;;;22.71;100.00;102027.44;5265147;28;20441;-71
2023/08/16 08:05:15;;;;;;;21.17;10.77;;;;;;;22.59;100.00;102036.53;5278152;28;20020;-71
2023/08/16 08:07:45;;;;;;;19.05;11.07;;;;;;;22.50;100.00;102033.22;5277969;28;20103;-72
2023/08/16 08:10:16;;;;;;;16.27;10.05;;;;;;;22.36;100.00;102035.16;5280165;28;20106;-71
2023/08/16 08:12:46;;;;;;;22.77;10.88;;;;;;;22.21;100.00;102040.88;5269796;28;20081;-71
2023/08/16 08:15:17;;;;;;;17.88;9.80;;;;;;;22.10;100.00;102041.53;5246606;28;20020;-72
2023/08/16 08:17:48;;;;;;;18.38;10.18;;;;;;;22.01;100.00;102041.97;5246510;28;20024;-71
2023/08/16 08:20:19;;;;;;;20.42;10.02;;;;;;;21.92;100.00;102042.19;5264702;28;20408;-72
2023/08/16 08:22:49;;;;;;;17.08;9.20;;;;;;;21.86;100.00;102044.94;5264731;28;20077;-72
2023/08/16 08:25:20;;;;;;;17.25;9.50;;;;;;;21.80;100.00;102045.78;5276576;28;20400;-71
2023/08/16 08:27:50;;;;;;;19.42;9.02;;;;;;;21.73;100.00;102041.16;5271903;28;20214;-70
2023/08/16 08:30:21;;;;;;;14.13;7.63;;;;;;;21.69;100.00;102045.38;5285372;28;20016;-71
2023/08/16 08:32:52;;;;;;;17.63;9.20;;;;;;;21.60;100.00;102045.78;5278275;28;20042;-71
2023/08/16 08:35:22;;;;;;;15.25;9.07;;;;;;;21.57;100.00;102044.31;5279023;28;20019;-71
2023/08/16 08:37:53;;;;;;;18.83;8.93;;;;;;;21.57;100.00;102051.66;5285317;28;20477;-72
2023/08/16 08:40:24;;;;;;;18.50;8.93;;;;;;;21.59;100.00;102053.16;5273312;28;20027;-72
2023/08/16 08:42:57;;;;;;;15.77;9.23;;;;;;;21.62;100.00;102049.16;5277563;28;20050;-71
2023/08/16 08:45:28;;;;;;;17.85;9.23;;;;;;;21.62;100.00;102043.69;5272967;28;20051;-71
2023/08/16 08:47:59;;;;;;;12.65;8.38;;;;;;;21.66;100.00;102051.25;5268480;28;20099;-71
2023/08/16 08:50:32;;;;;;;14.30;8.68;;;;;;;21.64;100.00;102049.78;5281841;28;20070;-71
2023/08/16 08:53:03;;;;;;;16.58;8.88;;;;;;;21.61;100.00;102044.75;5280320;28;20024;-71
2023/08/16 08:55:36;;;;;;;18.30;9.05;;;;;;;21.59;100.00;102046.84;5269329;28;20024;-72
2023/08/16 08:58:06;;;;;;;21.10;9.90;;;;;;;21.56;100.00;102050.00;5281811;28;20024;-72
2023/08/16 09:00:39;;;;;;;15.63;8.50;;;;;;;21.51;100.00;102045.16;5267853;28;20395;-72
2023/08/16 09:03:12;;;;;;;16.02;9.73;;;;;;;21.52;100.00;102043.25;5283697;28;20020;-71
2023/08/16 09:05:44;;;;;;;17.95;9.13;;;;;;;21.56;100.00;102039.91;5289328;28;20389;-71
2023/08/16 09:08:16;;;;;;;15.13;8.57;;;;;;;21.67;100.00;102049.34;5285321;28;20066;-72
2023/08/16 09:10:48;;;;;;;17.08;9.07;;;;;;;21.76;100.00;102045.34;5275843;28;20093;-72
2023/08/16 09:13:19;;;;;;;17.38;8.80;;;;;;;21.85;100.00;102044.09;5288613;28;20485;-71
2023/08/16 09:15:49;;;;;;;17.90;8.80;;;;;;;21.89;100.00;102047.25;5292387;27;20026;-71
2023/08/16 09:18:22;;;;;;;18.48;8.25;;;;;;;21.93;100.00;102040.28;5301511;27;20023;-71
2023/08/16 09:20:52;;;;;;;16.08;7.40;;;;;;;22.00;100.00;102043.03;5274920;28;20055;-70
2023/08/16 09:23:23;;;;;;;15.60;7.25;;;;;;;22.03;100.00;102042.59;5278600;28;20047;-70
2023/08/16 09:25:53;;;;;;;12.48;6.93;;;;;;;22.06;100.00;102043.00;5267305;28;20032;-71
2023/08/16 09:28:30;;;;;;;14.90;6.65;;;;;;;22.12;100.00;102042.19;5279230;28;20016;-71
2023/08/16 09:31:06;;;;;;;11.50;5.70;;;;;;;22.20;100.00;102039.22;5282417;28;20024;-70
2023/08/16 09:33:37;;;;;;;16.15;5.90;;;;;;;22.31;100.00;102037.72;5282000;28;20020;-71
2023/08/16 09:36:08;;;;;;;15.98;6.35;;;;;;;22.46;100.00;102034.72;5280438;28;20020;-71
2023/08/16 09:38:41;;;;;;;13.45;6.60;;;;;;;22.69;100.00;102040.50;5281418;28;20045;-71
2023/08/16 09:41:16;;;;;;;11.43;5.80;;;;;;;22.89;100.00;102037.69;5267460;28;20024;-71
2023/08/16 09:43:47;;;;;;;10.45;5.68;;;;;;;23.14;100.00;102031.41;5267333;28;20023;-71
2023/08/16 09:46:20;;;;;;;12.20;5.57;;;;;;;23.37;100.00;102028.94;5279767;28;20042;-71
2023/08/16 09:48:51;;;;;;;8.30;4.88;;;;;;;23.48;100.00;102041.91;5288388;28;20023;-71
2023/08/16 09:51:21;;;;;;;11.18;5.00;;;;;;;23.54;100.00;102037.44;5273108;28;20477;-71
2023/08/16 09:53:52;;;;;;;12.27;4.85;;;;;;;23.57;100.00;102034.25;5275166;28;20023;-71
2023/08/16 09:56:26;;;;;;;9.73;4.75;;;;;;;23.71;100.00;102032.28;5288096;28;20034;-71
2023/08/16 09:58:58;;;;;;;9.52;5.22;;;;;;;23.84;100.00;102043.09;5288281;28;20027;-72
2023/08/16 10:01:30;;;;;;;7.38;4.80;;;;;;;23.87;100.00;102041.81;5275182;28;20032;-71
2023/08/16 10:04:02;;;;;;;9.95;5.13;;;;;;;23.93;100.00;102039.00;5288693;28;20023;-71
2023/08/16 10:06:34;;;;;;;7.22;4.45;;;;;;;24.10;100.00;102033.78;5268547;28;20036;-71
2023/08/16 10:09:08;;;;;;;10.93;5.60;;;;;;;24.21;100.00;102027.53;5278567;28;20020;-72
2023/08/16 10:11:40;;;;;;;;;;;;;;;24.39;100.00;102021.22;5279654;28;20043;-72
2023/08/16 10:14:12;;;;;;;8.57;4.75;;;;;;;24.52;100.00;102018.31;5266667;28;20362;-72
2023/08/16 10:16:47;;;;;;;12.05;5.05;;;;;;;24.74;100.00;102013.16;5274845;28;20480;-71
2023/08/16 10:19:21;;;;;;;;;;;;;;;24.96;100.00;102012.66;5274805;28;20477;-72
2023/08/16 10:21:52;;;;;;;11.88;5.32;;;;;;;25.07;100.00;102022.03;5288009;28;20018;-72
2023/08/16 10:24:23;;;;;;;12.52;5.28;;;;;;;25.11;100.00;102020.50;5269470;28;20023;-71
2023/08/16 10:26:57;;;;;;;10.70;4.55;;;;;;;25.12;100.00;102023.00;5278485;28;20023;-73
2023/08/16 10:29:35;;;;;;;13.07;5.07;;;;;;;25.08;100.00;102023.69;5281314;28;20405;-71
2023/08/16 10:32:11;;;;;;;15.05;5.22;;;;;;;25.19;100.00;102025.63;5267710;28;20103;-71
2023/08/16 10:34:43;;;;;;;12.90;5.70;;;;;;;25.28;100.00;102024.22;5277890;28;20081;-73
2023/08/16 10:37:14;;;;;;;10.88;5.40;;;;;;;25.29;100.00;102023.97;5270260;28;20087;-72
2023/08/16 10:40:03;;;;;;;8.55;4.60;;;;;;;25.48;100.00;102035.72;5287698;28;20497;-72
2023/08/16 10:42:34;;;;;;;9.63;5.30;;;;;;;25.61;100.00;102029.16;5287555;28;20073;-72
2023/08/16 10:45:04;;;;;;;10.85;5.28;;;;;;;25.64;100.00;102033.34;5272123;28;20028;-72
2023/08/16 10:47:37;;;;;;;9.00;5.57;;;;;;;25.92;100.00;102025.25;5266063;28;20016;-72
2023/08/16 10:50:08;;;;;;;10.38;6.35;;;;;;;26.01;100.00;102031.22;5268779;28;20084;-72
2023/08/16 10:52:41;;;;;;;9.75;5.65;;;;;;;26.25;100.00;102024.59;5287388;28;20063;-72
2023/08/16 10:55:13;;;;;;;13.07;5.57;;;;;;;26.44;100.00;102025.28;5283845;28;20477;-73
2023/08/16 10:58:03;;;;;;;7.95;5.25;;;;;;;26.55;100.00;102018.91;5288450;27;20027;-72
2023/08/16 11:00:36;;;;;;;11.05;5.88;;;;;;;26.61;100.00;102022.63;5282707;28;20081;-72
2023/08/16 11:03:18;;;;;;;13.18;6.28;;;;;;;26.63;100.00;102022.38;5288074;27;20300;-72
2023/08/16 11:05:50;;;;;;;12.23;5.50;;;;;;;26.53;100.00;102015.56;5280693;27;20032;-73
2023/08/16 11:08:20;;;;;;;11.82;5.95;;;;;;;26.52;100.00;102011.16;5272014;28;20568;-72
2023/08/16 11:10:51;;;;;;;13.80;5.50;;;;;;;26.58;100.00;102003.84;5282027;27;20032;-72
2023/08/16 11:13:21;;;;;;;8.60;5.18;;;;;;;26.67;100.00;101996.03;5289210;27;20019;-72
2023/08/16 11:15:52;;;;;;;9.70;5.07;;;;;;;26.68;100.00;102000.44;5282699;27;20028;-73
2023/08/16 11:18:40;;;;;;;12.35;4.78;;;;;;;26.82;100.00;101993.56;5286572;28;20015;-72
2023/08/16 11:21:13;;;;;;;11.73;5.60;;;;;;;26.91;100.00;101994.84;5294904;27;20023;-72
2023/08/16 11:23:44;;;;;;;10.18;4.88;;;;;;;27.12;100.00;101990.56;5291376;27;20572;-73
2023/08/16 11:26:15;;;;;;;13.30;5.47;;;;;;;27.45;100.00;101992.44;5295063;27;20046;-73
2023/08/16 11:28:46;;;;;;;10.63;5.85;;;;;;;27.49;100.00;101984.53;5296080;27;20465;-72